createdAt,value
2018-08-25T00:01:41.563Z,99.00
2018-08-25T00:04:12.488Z,98.70
2018-08-25T00:06:43.120Z,98.90
2018-08-25T00:09:13.866Z,98.70
2018-08-25T00:11:44.236Z,98.90
2018-08-25T00:14:14.686Z,99.00
2018-08-25T00:16:45.778Z,99.20
2018-08-25T00:19:16.401Z,99.20
2018-08-25T00:21:46.953Z,99.10
2018-08-25T00:24:17.325Z,99.00
2018-08-25T00:26:47.665Z,98.90
2018-08-25T00:29:17.985Z,98.90
2018-08-25T00:31:48.861Z,98.80
2018-08-25T00:34:19.581Z,98.90
2018-08-25T00:36:49.977Z,98.90
2018-08-25T00:39:20.433Z,98.90
2018-08-25T00:41:51.861Z,98.70
2018-08-25T00:44:22.229Z,98.80
2018-08-25T00:46:53.004Z,98.80
2018-08-25T00:49:23.707Z,98.80
2018-08-25T00:51:54.265Z,98.70
2018-08-25T00:54:24.661Z,98.70
2018-08-25T00:56:55.317Z,98.60
2018-08-25T00:59:26.494Z,98.90
2018-08-25T01:01:56.779Z,99.00
2018-08-25T01:04:27.174Z,99.10
2018-08-25T01:06:58.007Z,99.00
2018-08-25T01:09:28.640Z,98.90
2018-08-25T01:12:02.890Z,98.90
2018-08-25T01:14:33.291Z,98.90
2018-08-25T01:17:03.603Z,98.90
2018-08-25T01:19:34.372Z,98.90
2018-08-25T01:22:06.639Z,98.90
2018-08-25T01:24:37.537Z,98.60
2018-08-25T01:27:07.833Z,98.30
2018-08-25T01:29:38.124Z,98.60
2018-08-25T01:32:08.473Z,98.50
2018-08-25T01:34:39.273Z,98.30
2018-08-25T01:37:09.596Z,98.20
2018-08-25T01:39:39.946Z,98.20
2018-08-25T01:42:11.128Z,98.20
2018-08-25T01:44:42.050Z,98.00
2018-08-25T01:47:12.370Z,98.10
2018-08-25T01:49:43.734Z,98.60
2018-08-25T01:52:14.025Z,98.80
2018-08-25T01:54:44.633Z,99.00
2018-08-25T01:57:15.415Z,98.90
2018-08-25T01:59:45.756Z,98.70
2018-08-25T02:02:17.686Z,98.60
2018-08-25T02:04:47.972Z,98.40
2018-08-25T02:07:18.724Z,98.50
2018-08-25T02:09:49.145Z,98.60
2018-08-25T02:12:19.527Z,98.50
2018-08-25T02:14:49.810Z,98.20
2018-08-25T02:17:20.168Z,98.20
2018-08-25T02:19:50.492Z,98.30
2018-08-25T02:22:20.858Z,98.80
2018-08-25T02:24:51.192Z,99.20
2018-08-25T02:27:21.486Z,99.30
2018-08-25T02:29:51.853Z,99.20
2018-08-25T02:32:22.244Z,99.20
2018-08-25T02:34:52.642Z,99.30
2018-08-25T02:37:23.299Z,99.40
2018-08-25T02:39:53.637Z,99.30
2018-08-25T02:42:23.966Z,99.10
2018-08-25T02:44:54.284Z,99.40
2018-08-25T02:47:24.614Z,99.20
2018-08-25T02:49:54.928Z,99.30
2018-08-25T02:52:26.141Z,99.20
2018-08-25T02:54:56.516Z,99.40
2018-08-25T02:57:26.812Z,99.50
2018-08-25T02:59:57.234Z,99.40
2018-08-25T03:02:27.630Z,99.50
2018-08-25T03:04:58.000Z,99.60
2018-08-25T03:07:28.298Z,99.60
2018-08-25T03:09:58.606Z,99.70
2018-08-25T03:12:28.945Z,99.80
2018-08-25T03:15:00.088Z,99.70
2018-08-25T03:17:30.429Z,99.90
2018-08-25T03:20:00.855Z,99.50
2018-08-25T03:22:31.187Z,98.90
2018-08-25T03:25:01.553Z,98.90
2018-08-25T03:27:32.360Z,99.00
2018-08-25T03:30:02.689Z,99.20
2018-08-25T03:32:33.098Z,99.50
2018-08-25T03:35:03.422Z,99.40
2018-08-25T03:37:33.757Z,99.30
2018-08-25T03:40:04.354Z,99.20
2018-08-25T03:42:34.692Z,99.30
2018-08-25T03:45:05.036Z,99.20
2018-08-25T03:47:35.354Z,99.30
2018-08-25T03:50:05.789Z,99.40
2018-08-25T03:52:36.127Z,98.90
2018-08-25T03:55:06.695Z,98.40
2018-08-25T03:57:36.966Z,98.50
2018-08-25T04:00:07.876Z,98.50
2018-08-25T04:02:38.459Z,98.40
2018-08-25T04:05:08.899Z,98.60
2018-08-25T04:07:39.272Z,98.80
2018-08-25T04:10:09.597Z,98.90
2018-08-25T04:12:40.014Z,99.20
2018-08-25T04:15:10.428Z,99.30
2018-08-25T04:17:41.422Z,99.50
2018-08-25T04:20:11.759Z,99.60
2018-08-25T04:22:42.557Z,99.60
2018-08-25T04:25:12.894Z,99.50
2018-08-25T04:27:43.483Z,99.20
2018-08-25T04:30:13.853Z,99.10
2018-08-25T04:32:44.319Z,98.80
2018-08-25T04:35:14.683Z,98.90
2018-08-25T04:37:46.085Z,99.00
2018-08-25T04:40:16.439Z,99.10
2018-08-25T04:42:46.720Z,98.90
2018-08-25T04:45:17.223Z,99.00
2018-08-25T04:47:47.862Z,99.20
2018-08-25T04:50:43.449Z,99.30
2018-08-25T04:53:21.734Z,99.40
2018-08-25T04:58:51.624Z,99.30
2018-08-25T05:01:26.121Z,99.10
2018-08-25T05:04:02.656Z,99.20
2018-08-25T05:06:33.069Z,99.40
2018-08-25T05:09:03.537Z,99.50
2018-08-25T05:11:33.873Z,99.40
2018-08-25T05:14:04.321Z,99.60
2018-08-25T05:16:34.701Z,99.50
2018-08-25T05:19:05.183Z,99.90
2018-08-25T05:21:35.492Z,99.90
2018-08-25T05:24:05.931Z,99.90
2018-08-25T05:26:36.281Z,99.90
2018-08-25T05:29:06.623Z,99.80
2018-08-25T05:31:36.973Z,99.70
2018-08-25T05:34:07.872Z,99.70
2018-08-25T05:36:38.425Z,99.60
2018-08-25T05:39:10.292Z,99.30
2018-08-25T05:41:40.561Z,98.90
2018-08-25T05:44:10.962Z,98.30
2018-08-25T05:46:41.246Z,98.40
2018-08-25T05:49:11.628Z,99.00
2018-08-25T05:51:42.641Z,99.20
2018-08-25T05:54:13.654Z,99.30
2018-08-25T05:56:45.011Z,99.20
2018-08-25T05:59:15.369Z,99.10
2018-08-25T06:01:46.768Z,99.10
2018-08-25T06:04:17.288Z,99.00
2018-08-25T06:06:47.607Z,99.30
2018-08-25T06:09:19.271Z,99.60
2018-08-25T06:11:49.948Z,99.70
2018-08-25T06:14:20.353Z,99.50
2018-08-25T06:16:50.751Z,99.50
2018-08-25T06:19:21.291Z,99.40
2018-08-25T06:21:51.589Z,99.10
2018-08-25T06:24:22.097Z,99.20
2018-08-25T06:26:52.405Z,99.40
2018-08-25T06:29:25.018Z,99.10
2018-08-25T06:31:56.094Z,98.90
2018-08-25T06:34:26.498Z,98.60
2018-08-25T06:36:57.769Z,98.30
2018-08-25T06:39:28.397Z,98.40
2018-08-25T06:41:58.723Z,98.20
2018-08-25T06:44:29.328Z,98.00
2018-08-25T06:47:00.578Z,97.90
2018-08-25T06:49:31.015Z,97.70
2018-08-25T06:52:01.326Z,97.50
2018-08-25T06:54:32.201Z,97.20
2018-08-25T06:57:02.782Z,97.20
2018-08-25T06:59:33.606Z,97.20
2018-08-25T07:02:04.202Z,96.90
2018-08-25T07:04:36.904Z,97.10
2018-08-25T07:07:14.527Z,97.30
2018-08-25T07:09:44.834Z,97.40
2018-08-25T07:12:16.742Z,97.50
2018-08-25T07:14:47.122Z,96.50
2018-08-25T07:17:17.419Z,96.60
2018-08-25T07:19:47.781Z,97.00
2018-08-25T07:22:18.649Z,96.80
2018-08-25T07:24:48.931Z,96.60
2018-08-25T07:27:19.248Z,96.10
2018-08-25T07:29:49.605Z,95.80
2018-08-25T07:32:19.933Z,96.10
2018-08-25T07:34:51.353Z,96.10
2018-08-25T07:37:21.652Z,95.90
2018-08-25T07:39:51.993Z,96.00
2018-08-25T07:42:22.343Z,95.30
2018-08-25T07:44:52.701Z,94.90
2018-08-25T07:47:23.021Z,94.80
2018-08-25T07:49:53.406Z,94.70
2018-08-25T07:52:23.719Z,94.50
2018-08-25T07:54:55.855Z,94.50
2018-08-25T07:57:26.136Z,94.30
2018-08-25T07:59:56.493Z,94.10
2018-08-25T08:02:26.845Z,93.50
2018-08-25T08:04:57.272Z,93.60
2018-08-25T08:07:28.104Z,93.00
2018-08-25T08:10:00.196Z,93.60
2018-08-25T08:12:30.968Z,93.40
2018-08-25T08:15:01.472Z,93.50
2018-08-25T08:17:32.048Z,93.90
2018-08-25T08:20:02.575Z,94.10
2018-08-25T08:22:32.946Z,94.20
2018-08-25T08:25:03.306Z,94.60
2018-08-25T08:27:33.703Z,95.00
2018-08-25T08:30:04.149Z,95.40
2018-08-25T08:32:34.452Z,95.60
2018-08-25T08:35:04.752Z,95.40
2018-08-25T08:37:35.983Z,95.40
2018-08-25T08:40:06.724Z,94.70
2018-08-25T08:42:37.628Z,94.10
2018-08-25T08:45:12.078Z,94.00
2018-08-25T08:47:42.464Z,93.70
2018-08-25T08:50:12.825Z,93.50
2018-08-25T08:52:43.155Z,93.50
2018-08-25T08:55:14.510Z,93.10
2018-08-25T08:57:44.957Z,92.40
2018-08-25T09:00:15.362Z,92.10
2018-08-25T09:02:45.705Z,92.60
2018-08-25T09:05:15.994Z,92.90
2018-08-25T09:07:46.337Z,92.80
2018-08-25T09:10:16.674Z,92.20
2018-08-25T09:12:46.957Z,92.40
2018-08-25T09:15:18.154Z,91.90
2018-08-25T09:17:48.700Z,91.70
2018-08-25T09:20:19.637Z,91.90
2018-08-25T09:22:50.045Z,92.40
2018-08-25T09:25:20.914Z,91.60
2018-08-25T09:27:51.969Z,90.80
2018-08-25T09:30:22.529Z,90.60
2018-08-25T09:32:53.792Z,90.70
2018-08-25T09:35:24.466Z,90.70
2018-08-25T09:37:54.801Z,90.50
2018-08-25T09:40:25.161Z,90.80
2018-08-25T09:42:56.511Z,90.90
2018-08-25T09:45:27.453Z,90.80
2018-08-25T09:47:58.157Z,91.30
2018-08-25T09:50:28.731Z,91.00
2018-08-25T09:52:59.178Z,91.40
2018-08-25T09:55:29.874Z,91.00
2018-08-25T09:58:00.338Z,90.80
2018-08-25T10:00:30.609Z,90.60
2018-08-25T10:03:00.996Z,90.10
2018-08-25T10:05:31.399Z,88.90
2018-08-25T10:08:02.078Z,88.20
2018-08-25T10:10:32.395Z,89.10
2018-08-25T10:13:02.724Z,87.40
2018-08-25T10:15:33.163Z,87.90
2018-08-25T10:18:03.537Z,88.50
2018-08-25T10:20:33.863Z,87.90
2018-08-25T10:23:04.562Z,86.00
2018-08-25T10:25:35.194Z,84.50
2018-08-25T10:28:05.809Z,83.90
2018-08-25T10:30:36.343Z,83.40
2018-08-25T10:33:07.057Z,81.70
2018-08-25T10:35:37.459Z,81.40
2018-08-25T10:38:07.964Z,81.60
2018-08-25T10:40:38.424Z,83.70
2018-08-25T10:43:08.781Z,85.10
2018-08-25T10:45:39.884Z,83.40
2018-08-25T10:48:10.277Z,83.90
2018-08-25T10:50:41.449Z,80.70
2018-08-25T10:53:11.839Z,80.70
2018-08-25T10:55:42.147Z,79.70
2018-08-25T10:58:12.504Z,80.30
2018-08-25T11:00:42.891Z,81.10
2018-08-25T11:03:13.115Z,79.70
2018-08-25T11:05:43.481Z,77.30
2018-08-25T11:08:14.495Z,79.20
2018-08-25T11:10:45.825Z,80.90
2018-08-25T11:13:16.153Z,80.80
2018-08-25T11:15:46.590Z,79.40
2018-08-25T11:18:18.495Z,74.00
2018-08-25T11:20:53.853Z,72.40
2018-08-25T11:23:24.260Z,72.70
2018-08-25T11:25:54.695Z,72.20
2018-08-25T11:28:25.855Z,72.90
2018-08-25T11:30:56.261Z,73.20
2018-08-25T11:33:27.266Z,74.40
2018-08-25T11:35:57.605Z,75.50
2018-08-25T11:38:28.038Z,76.20
2018-08-25T11:40:58.389Z,76.70
2018-08-25T11:43:28.713Z,77.20
2018-08-25T11:46:00.276Z,77.90
2018-08-25T11:48:30.989Z,78.00
2018-08-25T11:51:02.366Z,77.50
2018-08-25T11:53:33.835Z,77.40
2018-08-25T11:56:04.173Z,77.70
2018-08-25T11:58:35.423Z,77.60
2018-08-25T12:01:07.558Z,77.40
2018-08-25T12:03:37.974Z,78.50
2018-08-25T12:06:08.274Z,76.90
2018-08-25T12:08:38.991Z,76.70
2018-08-25T12:11:10.029Z,76.30
2018-08-25T12:13:42.617Z,75.40
2018-08-25T12:16:13.046Z,76.00
2018-08-25T12:18:43.849Z,75.10
2018-08-25T12:21:14.208Z,73.50
2018-08-25T12:23:45.775Z,71.90
2018-08-25T12:26:16.266Z,70.10
2018-08-25T12:28:47.117Z,69.00
2018-08-25T12:31:17.531Z,66.10
2018-08-25T12:33:47.925Z,65.60
2018-08-25T12:36:18.497Z,64.50
2018-08-25T12:38:49.251Z,62.50
2018-08-25T12:41:20.150Z,62.10
2018-08-25T12:43:51.316Z,59.90
2018-08-25T12:46:22.514Z,60.40
2018-08-25T12:48:53.000Z,59.70
2018-08-25T12:51:23.291Z,58.60
2018-08-25T12:53:53.632Z,59.50
2018-08-25T12:56:24.012Z,60.50
2018-08-25T12:58:54.334Z,61.00
2018-08-25T13:01:25.050Z,59.90
2018-08-25T13:03:56.701Z,60.40
2018-08-25T13:06:27.488Z,61.70
2018-08-25T13:08:58.857Z,60.60
2018-08-25T13:11:29.289Z,62.00
2018-08-25T13:14:01.049Z,60.70
2018-08-25T13:16:31.372Z,60.60
2018-08-25T13:19:01.944Z,60.30
2018-08-25T13:21:32.956Z,60.80
2018-08-25T13:24:03.553Z,62.50
2018-08-25T13:26:33.913Z,62.70
2018-08-25T13:29:05.334Z,62.80
2018-08-25T13:31:36.356Z,64.70
2018-08-25T13:34:07.737Z,63.40
2018-08-25T13:36:38.166Z,63.30
2018-08-25T13:39:12.956Z,63.10
2018-08-25T13:41:43.408Z,62.30
2018-08-25T13:44:14.066Z,62.90
2018-08-25T13:46:44.877Z,62.70
2018-08-25T13:49:16.087Z,62.40
2018-08-25T13:51:46.434Z,62.70
2018-08-25T13:54:16.825Z,62.40
2018-08-25T13:56:51.241Z,62.40
2018-08-25T13:59:21.740Z,61.50
2018-08-25T14:01:52.376Z,61.00
2018-08-25T14:04:24.805Z,61.30
2018-08-25T14:06:59.210Z,60.10
2018-08-25T14:09:29.589Z,60.90
2018-08-25T14:12:00.065Z,59.60
2018-08-25T14:14:30.415Z,60.00
2018-08-25T14:17:00.920Z,59.90
2018-08-25T14:19:33.134Z,60.00
2018-08-25T14:22:04.433Z,61.30
2018-08-25T14:24:35.997Z,62.80
2018-08-25T14:27:08.812Z,63.00
2018-08-25T14:29:40.363Z,63.00
2018-08-25T14:32:10.726Z,61.00
2018-08-25T14:34:43.498Z,60.20
2018-08-25T14:37:14.483Z,61.70
2018-08-25T14:39:45.253Z,62.90
2018-08-25T14:42:15.551Z,61.10
2018-08-25T14:44:45.880Z,60.80
2018-08-25T14:47:16.986Z,60.50
2018-08-25T14:49:47.924Z,62.50
2018-08-25T14:52:18.249Z,59.80
2018-08-25T14:54:49.345Z,60.80
2018-08-25T14:57:19.812Z,60.40
2018-08-25T14:59:50.432Z,61.60
2018-08-25T15:02:20.768Z,61.10
2018-08-25T15:04:51.075Z,61.70
2018-08-25T15:07:21.723Z,59.60
2018-08-25T15:09:52.817Z,59.20
2018-08-25T15:12:24.528Z,59.90
2018-08-25T15:14:55.229Z,60.00
2018-08-25T15:17:26.024Z,60.20
2018-08-25T15:19:56.375Z,60.50
2018-08-25T15:22:27.520Z,61.90
2018-08-25T15:24:57.919Z,60.40
2018-08-25T15:27:29.475Z,62.50
2018-08-25T15:30:00.717Z,64.30
2018-08-25T15:32:31.507Z,66.70
2018-08-25T15:35:02.673Z,63.60
2018-08-25T15:37:33.289Z,64.50
2018-08-25T15:40:05.322Z,65.00
2018-08-25T15:42:35.725Z,66.00
2018-08-25T15:45:06.416Z,65.80
2018-08-25T15:47:38.785Z,65.10
2018-08-25T15:50:09.683Z,64.60
2018-08-25T15:52:40.134Z,65.40
2018-08-25T15:55:10.503Z,66.60
2018-08-25T15:57:42.171Z,65.80
2018-08-25T16:00:13.724Z,65.70
2018-08-25T16:02:44.108Z,66.40
2018-08-25T16:05:15.412Z,66.70
2018-08-25T16:07:46.569Z,66.50
2018-08-25T16:10:19.285Z,66.00
2018-08-25T16:12:49.981Z,66.50
2018-08-25T16:21:58.677Z,67.60
2018-08-25T16:24:40.309Z,67.60
2018-08-25T16:30:10.241Z,66.10
2018-08-25T16:32:53.144Z,66.60
2018-08-25T16:35:25.531Z,67.00
2018-08-25T16:38:14.458Z,67.20
2018-08-25T16:40:50.198Z,67.40
2018-08-25T16:46:05.302Z,65.60
2018-08-25T16:48:40.169Z,66.20
2018-08-25T16:51:20.621Z,66.50
2018-08-25T16:53:59.490Z,67.80
2018-08-25T16:56:31.049Z,70.00
2018-08-25T16:59:01.473Z,67.90
2018-08-25T17:01:33.902Z,66.50
2018-08-25T17:04:07.449Z,67.20
2018-08-25T17:09:16.502Z,68.10
2018-08-25T17:11:47.705Z,68.40
2018-08-25T17:14:25.232Z,67.70
2018-08-25T17:16:55.640Z,67.50
2018-08-25T17:19:26.887Z,67.80
2018-08-25T17:21:58.702Z,68.20
2018-08-25T17:24:30.592Z,68.80
2018-08-25T17:27:01.092Z,68.20
2018-08-25T17:29:31.655Z,67.80
2018-08-25T17:32:02.249Z,66.10
2018-08-25T17:34:33.260Z,66.50
2018-08-25T17:37:04.287Z,67.00
2018-08-25T17:39:35.333Z,67.60
2018-08-25T17:42:05.868Z,66.70
2018-08-25T17:44:36.953Z,66.00
2018-08-25T17:47:07.529Z,65.90
2018-08-25T17:49:37.882Z,65.90
2018-08-25T17:52:08.303Z,66.20
2018-08-25T17:54:38.592Z,66.30
2018-08-25T17:57:08.950Z,66.10
2018-08-25T17:59:39.183Z,66.10
2018-08-25T18:02:09.511Z,67.50
2018-08-25T18:04:39.807Z,68.10
2018-08-25T18:07:10.330Z,67.80
2018-08-25T18:09:42.766Z,66.80
2018-08-25T18:12:13.803Z,67.80
2018-08-25T18:14:44.532Z,69.00
2018-08-25T18:17:15.310Z,68.60
2018-08-25T18:19:45.606Z,68.60
2018-08-25T18:22:16.280Z,69.10
2018-08-25T18:24:47.090Z,69.40
2018-08-25T18:27:17.516Z,70.20
2018-08-25T18:29:48.364Z,71.30
2018-08-25T18:32:18.656Z,69.00
2018-08-25T18:34:49.086Z,69.30
2018-08-25T18:37:20.357Z,70.40
2018-08-25T18:39:50.788Z,70.60
2018-08-25T18:42:21.172Z,70.90
2018-08-25T18:44:53.710Z,70.90
2018-08-25T18:47:24.112Z,71.50
2018-08-25T18:49:55.396Z,71.80
2018-08-25T18:52:26.129Z,71.20
2018-08-25T18:54:58.614Z,72.30
2018-08-25T18:57:30.201Z,72.00
2018-08-25T19:00:00.865Z,71.30
2018-08-25T19:02:32.450Z,72.30
2018-08-25T19:05:03.744Z,71.80
2018-08-25T19:07:34.706Z,72.80
2018-08-25T19:10:06.781Z,73.60
2018-08-25T19:12:37.551Z,73.20
2018-08-25T19:15:07.991Z,72.50
2018-08-25T19:17:38.735Z,72.70
2018-08-25T19:20:09.288Z,73.10
2018-08-25T19:22:39.619Z,74.00
2018-08-25T19:25:11.042Z,74.10
2018-08-25T19:27:43.052Z,75.70
2018-08-25T19:30:15.798Z,75.70
2018-08-25T19:32:46.191Z,76.20
2018-08-25T19:35:17.236Z,76.10
2018-08-25T19:37:47.618Z,76.60
2018-08-25T19:40:18.024Z,76.50
2018-08-25T19:42:50.090Z,75.50
2018-08-25T19:45:20.537Z,76.90
2018-08-25T19:47:53.404Z,77.70
2018-08-25T19:50:23.746Z,77.70
2018-08-25T19:52:54.225Z,78.00
2018-08-25T19:55:24.888Z,78.60
2018-08-25T19:57:55.509Z,78.70
2018-08-25T20:00:27.141Z,79.50
2018-08-25T20:02:57.458Z,80.30
2018-08-25T20:05:28.047Z,81.50
2018-08-25T20:07:58.606Z,81.30
2018-08-25T20:10:29.165Z,81.00
2018-08-25T20:13:00.365Z,81.20
2018-08-25T20:15:30.695Z,81.40
2018-08-25T20:18:00.989Z,81.10
2018-08-25T20:20:33.290Z,81.50
2018-08-25T20:23:05.055Z,81.80
2018-08-25T20:25:36.391Z,81.90
2018-08-25T20:28:06.784Z,81.80
2018-08-25T20:30:38.204Z,83.60
2018-08-25T20:33:09.473Z,82.80
2018-08-25T20:35:39.903Z,82.40
2018-08-25T20:38:10.451Z,82.60
2018-08-25T20:40:41.741Z,83.10
2018-08-25T20:43:12.105Z,83.40
2018-08-25T20:45:44.184Z,83.70
2018-08-25T20:48:14.544Z,84.50
2018-08-25T20:50:45.837Z,84.70
2018-08-25T20:53:16.628Z,84.60
2018-08-25T20:55:47.120Z,84.50
2018-08-25T20:58:17.930Z,84.50
2018-08-25T21:00:48.325Z,85.50
2018-08-25T21:03:18.583Z,84.70
2018-08-25T21:05:48.927Z,83.80
2018-08-25T21:08:19.247Z,83.50
2018-08-25T21:10:49.617Z,83.40
2018-08-25T21:13:20.471Z,83.40
2018-08-25T21:15:51.403Z,82.90
2018-08-25T21:18:21.735Z,82.70
2018-08-25T21:20:52.219Z,83.30
2018-08-25T21:23:23.576Z,84.60
2018-08-25T21:25:53.904Z,84.70
2018-08-25T21:28:24.310Z,84.90
2018-08-25T21:30:54.675Z,84.90
2018-08-25T21:33:24.951Z,84.40
2018-08-25T21:35:55.275Z,84.40
2018-08-25T21:38:25.618Z,84.60
2018-08-25T21:40:56.375Z,84.30
2018-08-25T21:43:27.457Z,85.00
2018-08-25T21:45:58.945Z,85.80
2018-08-25T21:48:29.269Z,84.30
2018-08-25T21:50:59.742Z,84.30
2018-08-25T21:53:30.797Z,84.70
2018-08-25T21:56:02.592Z,85.70
2018-08-25T21:58:33.025Z,86.00
2018-08-25T22:01:04.283Z,86.20
2018-08-25T22:03:35.568Z,86.40
2018-08-25T22:06:07.584Z,85.40
2018-08-25T22:08:37.943Z,85.00
2018-08-25T22:11:08.373Z,84.10
2018-08-25T22:13:39.161Z,83.40
2018-08-25T22:16:09.537Z,83.60
2018-08-25T22:18:40.087Z,82.60
2018-08-25T22:21:12.916Z,82.60
2018-08-25T22:23:44.144Z,82.10
2018-08-25T22:26:17.201Z,82.70
2018-08-25T22:28:47.605Z,83.20
2018-08-25T22:31:18.474Z,83.70
2018-08-25T22:33:49.471Z,83.70
2018-08-25T22:36:20.687Z,83.20
2018-08-25T22:38:51.025Z,83.90
2018-08-25T22:41:23.356Z,84.60
2018-08-25T22:43:54.649Z,84.90
2018-08-25T22:46:25.231Z,85.10
2018-08-25T22:48:55.533Z,84.10
2018-08-25T22:51:25.874Z,83.30
2018-08-25T22:53:56.160Z,83.50
2018-08-25T22:56:26.558Z,83.60
2018-08-25T22:58:56.892Z,84.10
2018-08-25T23:01:27.381Z,85.80
2018-08-25T23:03:58.216Z,85.50
2018-08-25T23:06:28.560Z,85.50
2018-08-25T23:08:59.090Z,85.20
2018-08-25T23:11:29.420Z,85.20
2018-08-25T23:14:01.368Z,85.80
2018-08-25T23:16:31.721Z,85.70
2018-08-25T23:19:02.894Z,85.50
2018-08-25T23:21:33.769Z,85.80
2018-08-25T23:24:04.262Z,85.80
2018-08-25T23:26:35.120Z,86.30
2018-08-25T23:29:06.616Z,86.90
2018-08-25T23:31:39.215Z,86.90
2018-08-25T23:34:09.440Z,87.50
2018-08-25T23:36:39.710Z,87.70
2018-08-25T23:39:11.336Z,87.20
2018-08-25T23:41:41.881Z,87.70
2018-08-25T23:44:12.775Z,87.80
2018-08-25T23:46:43.076Z,88.60
2018-08-25T23:49:14.797Z,89.20
2018-08-25T23:51:45.877Z,89.80
2018-08-25T23:54:16.137Z,90.00
2018-08-25T23:56:46.536Z,90.00
2018-08-25T23:59:16.861Z,90.20
